Time;durP1;ratioP1;P1;durP2;ratioP2;P2;SDS_P1;SDS_P2;PMS_P1;PMS_P2;Temp;Humidity;BMP_temperature;BMP_pressure;BME280_temperature;BME280_humidity;BME280_pressure;Samples;Min_cycle;Max_cycle;Signal;HPM_P1;HPM_P2
2022/11/01 00:00:25;;;;;;;;;;;12.70;99.90;;;;;;5089927;28;20022;-76
2022/11/01 00:02:52;;;;;;;;;;;12.70;99.90;;;;;;5088249;28;20073;-76
2022/11/01 00:05:20;;;;;;;;;;;12.70;99.90;;;;;;5083095;28;20402;-75
2022/11/01 00:07:47;;;;;;;;;;;12.70;99.90;;;;;;5087550;28;19924;-75
2022/11/01 00:10:14;;;;;;;;;;;12.70;99.90;;;;;;5086312;28;19932;-74
2022/11/01 00:12:43;;;;;;;;;;;12.70;99.90;;;;;;5085036;28;20659;-75
2022/11/01 00:15:10;;;;;;;;;;;12.70;99.90;;;;;;5084042;28;19924;-75
2022/11/01 00:17:36;;;;;;;;;;;12.60;99.90;;;;;;5090290;28;19938;-75
2022/11/01 00:20:03;;;;;;;;;;;12.60;99.90;;;;;;5086756;28;19938;-75
2022/11/01 00:22:32;;;;;;;;;;;12.60;99.90;;;;;;5087566;28;19934;-75
2022/11/01 00:24:58;;;;;;;;;;;12.60;99.90;;;;;;5086348;28;19932;-75
2022/11/01 00:27:25;;;;;;;;;;;12.60;99.90;;;;;;5087528;28;20022;-74
2022/11/01 00:29:52;;;;;;;;;;;12.60;99.90;;;;;;5089453;28;20011;-75
2022/11/01 00:32:19;;;;;;;;;;;12.60;99.90;;;;;;5083363;28;19939;-75
2022/11/01 00:34:46;;;;;;;;;;;12.50;99.90;;;;;;5086439;28;19924;-75
2022/11/01 00:37:12;;;;;;;;;;;12.50;99.90;;;;;;5082791;28;19967;-74
2022/11/01 00:39:41;;;;;;;;;;;12.50;99.90;;;;;;5080432;28;19924;-75
2022/11/01 00:42:07;;;;;;;;;;;12.40;99.90;;;;;;5093606;28;19924;-75
2022/11/01 00:44:34;;;;;;;;;;;12.40;99.90;;;;;;5081233;28;19935;-75
2022/11/01 00:47:01;;;;;;;;;;;12.40;99.90;;;;;;5087667;28;19932;-75
2022/11/01 00:49:28;;;;;;;;;;;12.40;99.90;;;;;;5084809;28;19932;-75
2022/11/01 00:51:54;;;;;;;;;;;12.40;99.90;;;;;;5089357;28;20819;-75
2022/11/01 00:54:24;;;;;;;;;;;12.40;99.90;;;;;;5082532;28;20291;-75
2022/11/01 00:56:52;;;;;;;;;;;12.40;99.90;;;;;;5101300;27;20024;-74
2022/11/01 00:59:19;;;;;;;;;;;12.40;99.90;;;;;;5084772;28;20015;-75
2022/11/01 01:01:46;;;;;;;;;;;12.40;99.90;;;;;;5076409;28;20386;-75
2022/11/01 01:04:13;;;;;;;;;;;12.40;99.90;;;;;;5087606;28;20020;-75
2022/11/01 01:06:40;;;;;;;;;;;12.40;99.90;;;;;;5089747;28;20018;-75
2022/11/01 01:09:07;;;;;;;;;;;12.40;99.90;;;;;;5088637;28;20018;-75
2022/11/01 01:11:33;;;;;;;;;;;12.40;99.90;;;;;;5086092;28;19925;-75
2022/11/01 01:14:01;;;;;;;;;;;12.40;99.90;;;;;;5081117;28;19931;-75
2022/11/01 01:16:28;;;;;;;;;;;12.40;99.90;;;;;;5084896;28;20027;-74
2022/11/01 01:18:55;;;;;;;;;;;12.40;99.90;;;;;;5085069;28;20422;-75
2022/11/01 01:21:22;;;;;;;;;;;12.40;99.90;;;;;;5085599;28;20003;-74
2022/11/01 01:23:50;;;;;;;;;;;12.30;99.90;;;;;;5086194;28;19982;-75
2022/11/01 01:26:17;;;;;;;;;;;12.30;99.90;;;;;;5084329;28;19924;-75
2022/11/01 01:28:44;;;;;;;;;;;12.40;99.90;;;;;;5079064;28;20015;-75
2022/11/01 01:31:12;;;;;;;;;;;12.30;99.90;;;;;;5090972;28;19932;-75
2022/11/01 01:33:39;;;;;;;;;;;12.30;99.90;;;;;;5090345;28;19924;-75
2022/11/01 01:36:06;;;;;;;;;;;12.30;99.90;;;;;;5084859;28;19927;-75
2022/11/01 01:38:33;;;;;;;;;;;12.30;99.90;;;;;;5090441;28;20462;-75
2022/11/01 01:41:54;;;;;;;;;;;12.30;99.90;;;;;;5086207;28;20488;-75
2022/11/01 01:43:47;;;;;;;;;;;12.30;99.90;;;;;;5087265;28;19966;-75
2022/11/01 01:46:16;;;;;;;;;;;12.30;99.90;;;;;;5085775;28;19924;-74
2022/11/01 01:48:44;;;;;;;;;;;12.30;99.90;;;;;;5084625;28;20013;-74
2022/11/01 01:51:13;;;;;;;;;;;12.30;99.90;;;;;;5089964;28;19939;-75
2022/11/01 01:53:41;;;;;;;;;;;12.30;99.90;;;;;;5087687;28;19930;-75
2022/11/01 01:56:10;;;;;;;;;;;12.30;99.90;;;;;;5087664;28;20413;-75
2022/11/01 01:58:39;;;;;;;;;;;12.30;99.90;;;;;;5083515;28;19924;-74
2022/11/01 02:01:06;;;;;;;;;;;12.20;99.90;;;;;;5084372;28;19928;-75
2022/11/01 02:03:35;;;;;;;;;;;12.20;99.90;;;;;;5081759;28;19936;-75
2022/11/01 02:06:05;;;;;;;;;;;12.20;99.90;;;;;;5086817;28;19924;-75
2022/11/01 02:08:33;;;;;;;;;;;12.20;99.90;;;;;;5086223;28;20034;-74
2022/11/01 02:11:00;;;;;;;;;;;12.20;99.90;;;;;;5087534;28;20424;-75
2022/11/01 02:13:27;;;;;;;;;;;12.20;99.90;;;;;;5087956;28;20029;-74
2022/11/01 02:16:02;;;;;;;;;;;12.20;99.90;;;;;;5082327;28;19931;-75
2022/11/01 02:18:33;;;;;;;;;;;12.20;99.90;;;;;;5085634;28;19930;-74
2022/11/01 02:21:11;;;;;;;;;;;12.10;99.90;;;;;;5078341;28;19991;-75
2022/11/01 02:23:59;;;;;;;;;;;12.20;99.90;;;;;;5083898;28;20648;-75
2022/11/01 02:26:47;;;;;;;;;;;12.10;99.90;;;;;;5099287;27;20022;-75
2022/11/01 02:29:18;;;;;;;;;;;12.10;99.90;;;;;;5079777;28;19960;-75
2022/11/01 02:32:03;;;;;;;;;;;12.10;99.90;;;;;;5085159;28;19955;-75
2022/11/01 02:34:34;;;;;;;;;;;12.00;99.90;;;;;;5082977;28;20414;-74
2022/11/01 02:37:02;;;;;;;;;;;12.10;99.90;;;;;;5083796;28;20348;-75
2022/11/01 02:39:31;;;;;;;;;;;12.10;99.90;;;;;;5085154;28;19968;-74
2022/11/01 02:42:03;;;;;;;;;;;12.00;99.90;;;;;;5081914;28;20015;-75
2022/11/01 02:44:33;;;;;;;;;;;12.00;99.90;;;;;;5086630;28;20321;-75
2022/11/01 02:47:00;;;;;;;;;;;12.00;99.90;;;;;;5081177;28;19963;-75
2022/11/01 02:49:29;;;;;;;;;;;12.00;99.90;;;;;;5086255;28;19985;-74
2022/11/01 02:51:58;;;;;;;;;;;12.00;99.90;;;;;;5083446;28;20018;-74
2022/11/01 02:54:27;;;;;;;;;;;12.00;99.90;;;;;;5079525;28;19951;-75
2022/11/01 02:56:55;;;;;;;;;;;12.00;99.90;;;;;;5079551;28;19959;-75
2022/11/01 02:59:23;;;;;;;;;;;12.00;99.90;;;;;;5085358;28;19924;-74
2022/11/01 03:01:53;;;;;;;;;;;12.00;99.90;;;;;;5082512;28;19924;-75
2022/11/01 03:04:20;;;;;;;;;;;12.00;99.90;;;;;;5078351;28;20602;-75
2022/11/01 03:06:49;;;;;;;;;;;12.00;99.90;;;;;;5085308;28;19928;-75
2022/11/01 03:09:17;;;;;;;;;;;12.00;99.90;;;;;;5086975;28;19931;-75
2022/11/01 03:11:49;;;;;;;;;;;12.00;99.90;;;;;;5084573;28;20124;-74
2022/11/01 03:14:22;;;;;;;;;;;12.00;99.90;;;;;;5088867;28;20074;-74
2022/11/01 03:16:53;;;;;;;;;;;12.00;99.90;;;;;;5086262;28;19951;-75
2022/11/01 03:19:28;;;;;;;;;;;12.00;99.90;;;;;;5086755;28;19978;-74
2022/11/01 03:21:59;;;;;;;;;;;12.00;99.90;;;;;;5081116;28;19993;-75
2022/11/01 03:24:28;;;;;;;;;;;12.00;99.90;;;;;;5086987;28;20418;-74
2022/11/01 03:26:59;;;;;;;;;;;12.00;99.90;;;;;;5086794;28;19930;-74
2022/11/01 03:29:27;;;;;;;;;;;12.00;99.90;;;;;;5085198;28;20031;-74
2022/11/01 03:31:54;;;;;;;;;;;11.90;99.90;;;;;;5084226;28;20014;-75
2022/11/01 03:34:22;;;;;;;;;;;11.90;99.90;;;;;;5084206;28;19978;-74
2022/11/01 03:36:51;;;;;;;;;;;11.90;99.90;;;;;;5095475;28;20309;-75
2022/11/01 03:39:20;;;;;;;;;;;11.90;99.90;;;;;;5083816;28;19960;-75
2022/11/01 03:41:51;;;;;;;;;;;12.00;99.90;;;;;;5090190;28;19942;-75
2022/11/01 03:44:18;;;;;;;;;;;12.00;99.90;;;;;;5089013;28;20015;-74
2022/11/01 03:46:45;;;;;;;;;;;11.90;99.90;;;;;;5083456;28;19942;-75
2022/11/01 03:49:15;;;;;;;;;;;11.90;99.90;;;;;;5088420;28;19934;-74
2022/11/01 03:51:42;;;;;;;;;;;12.00;99.90;;;;;;5087881;28;20408;-75
2022/11/01 03:54:10;;;;;;;;;;;12.00;99.90;;;;;;5083391;28;19924;-75
2022/11/01 03:56:39;;;;;;;;;;;12.00;99.90;;;;;;5086424;28;19924;-74
2022/11/01 03:59:08;;;;;;;;;;;12.00;99.90;;;;;;5085262;28;19928;-74
2022/11/01 04:01:34;;;;;;;;;;;12.00;99.90;;;;;;5087097;28;19928;-74
2022/11/01 04:04:01;;;;;;;;;;;12.00;99.90;;;;;;5086496;28;20371;-74
2022/11/01 04:06:28;;;;;;;;;;;12.00;99.90;;;;;;5086475;27;20431;-75
2022/11/01 04:08:55;;;;;;;;;;;12.00;99.90;;;;;;5093858;28;20333;-74
2022/11/01 04:11:22;;;;;;;;;;;11.90;99.90;;;;;;5087581;28;19997;-74
2022/11/01 04:13:49;;;;;;;;;;;11.90;99.90;;;;;;5079277;28;19928;-75
2022/11/01 04:21:46;;;;;;;;;;;11.90;99.90;;;;;;5084770;28;20596;-74
2022/11/01 04:24:19;;;;;;;;;;;11.90;99.90;;;;;;5082852;28;19923;-73
2022/11/01 04:26:46;;;;;;;;;;;11.90;99.90;;;;;;5083210;28;20065;-75
2022/11/01 04:29:15;;;;;;;;;;;11.90;99.90;;;;;;5088829;28;21718;-74
2022/11/01 04:31:43;;;;;;;;;;;11.80;99.90;;;;;;5088389;28;19950;-75
2022/11/01 04:34:10;;;;;;;;;;;11.90;99.90;;;;;;5078890;28;19925;-74
2022/11/01 04:36:37;;;;;;;;;;;11.90;99.90;;;;;;5092363;28;20359;-74
2022/11/01 04:39:04;;;;;;;;;;;11.80;99.90;;;;;;5087447;28;19924;-75
2022/11/01 04:41:31;;;;;;;;;;;11.90;99.90;;;;;;5081768;28;20007;-74
2022/11/01 04:43:58;;;;;;;;;;;11.90;99.90;;;;;;5085973;28;20449;-74
2022/11/01 04:46:26;;;;;;;;;;;11.80;99.90;;;;;;5084509;28;20393;-75
2022/11/01 04:48:54;;;;;;;;;;;11.80;99.90;;;;;;5085858;28;19939;-74
2022/11/01 04:51:21;;;;;;;;;;;11.80;99.90;;;;;;5088868;28;19978;-74
2022/11/01 04:53:48;;;;;;;;;;;11.80;99.90;;;;;;5085688;28;19981;-75
2022/11/01 04:56:15;;;;;;;;;;;11.80;99.90;;;;;;5083395;28;19974;-75
2022/11/01 04:58:42;;;;;;;;;;;11.80;99.90;;;;;;5088674;28;20389;-74
2022/11/01 05:01:09;;;;;;;;;;;11.80;99.90;;;;;;5080304;28;19932;-74
2022/11/01 05:03:36;;;;;;;;;;;11.90;99.90;;;;;;5084435;28;19924;-74
2022/11/01 05:06:04;;;;;;;;;;;11.80;99.90;;;;;;5090007;28;19963;-75
2022/11/01 05:08:31;;;;;;;;;;;11.80;99.90;;;;;;5087009;28;19932;-75
2022/11/01 05:10:58;;;;;;;;;;;11.80;99.90;;;;;;5081934;28;20412;-74
2022/11/01 05:13:25;;;;;;;;;;;11.80;99.90;;;;;;5087907;28;19931;-74
2022/11/01 05:15:52;;;;;;;;;;;11.80;99.90;;;;;;5081151;28;20310;-74
2022/11/01 05:18:19;;;;;;;;;;;11.80;99.90;;;;;;5081304;28;20295;-74
2022/11/01 05:20:46;;;;;;;;;;;11.80;99.90;;;;;;5083527;28;19968;-75
2022/11/01 05:23:14;;;;;;;;;;;11.80;99.90;;;;;;5086005;28;19928;-75
2022/11/01 05:25:40;;;;;;;;;;;11.80;99.90;;;;;;5089812;28;19927;-75
2022/11/01 05:28:08;;;;;;;;;;;11.80;99.90;;;;;;5083686;28;20135;-75
2022/11/01 05:30:35;;;;;;;;;;;11.80;99.90;;;;;;5078230;28;19970;-74
2022/11/01 05:33:02;;;;;;;;;;;11.80;99.90;;;;;;5091608;28;19932;-75
2022/11/01 05:35:30;;;;;;;;;;;11.80;99.90;;;;;;5081355;28;20010;-74
2022/11/01 05:37:56;;;;;;;;;;;11.80;99.90;;;;;;5082680;28;20887;-75
2022/11/01 05:40:25;;;;;;;;;;;11.80;99.90;;;;;;5086271;28;19924;-74
2022/11/01 05:42:51;;;;;;;;;;;11.80;99.90;;;;;;5084625;28;20013;-75
2022/11/01 05:45:18;;;;;;;;;;;11.80;99.90;;;;;;5081737;28;20355;-75
2022/11/01 05:47:45;;;;;;;;;;;11.70;99.90;;;;;;5084077;28;20365;-75
2022/11/01 05:50:13;;;;;;;;;;;11.70;99.90;;;;;;5087729;28;19931;-75
2022/11/01 05:52:40;;;;;;;;;;;11.70;99.90;;;;;;5088585;28;19984;-75
2022/11/01 05:55:08;;;;;;;;;;;11.70;99.90;;;;;;5081882;28;19924;-75
2022/11/01 05:57:36;;;;;;;;;;;11.70;99.90;;;;;;5082845;28;20401;-75
2022/11/01 06:00:07;;;;;;;;;;;11.70;99.90;;;;;;5084754;28;20176;-74
2022/11/01 06:02:40;;;;;;;;;;;11.70;99.90;;;;;;5086567;28;19932;-75
2022/11/01 06:05:07;;;;;;;;;;;11.70;99.90;;;;;;5082564;28;19924;-74
2022/11/01 06:07:34;;;;;;;;;;;11.70;99.90;;;;;;5085387;28;20393;-75
2022/11/01 06:10:01;;;;;;;;;;;11.70;99.90;;;;;;5085200;28;19966;-74
2022/11/01 06:12:28;;;;;;;;;;;11.70;99.90;;;;;;5081602;28;19968;-75
2022/11/01 06:14:56;;;;;;;;;;;11.70;99.90;;;;;;5086467;28;19934;-74
2022/11/01 06:17:23;;;;;;;;;;;11.70;99.90;;;;;;5082201;28;20507;-74
2022/11/01 06:19:53;;;;;;;;;;;11.80;99.90;;;;;;5083154;28;19924;-74
2022/11/01 06:22:19;;;;;;;;;;;11.70;99.90;;;;;;5088936;28;19930;-74
2022/11/01 06:24:46;;;;;;;;;;;11.70;99.90;;;;;;5087116;28;19935;-74
2022/11/01 06:27:13;;;;;;;;;;;11.70;99.90;;;;;;5082768;28;19986;-75
2022/11/01 06:29:40;;;;;;;;;;;11.70;99.90;;;;;;5082852;28;19931;-75
2022/11/01 06:32:08;;;;;;;;;;;11.70;99.90;;;;;;5082680;28;20015;-74
2022/11/01 06:34:35;;;;;;;;;;;11.70;99.90;;;;;;5081947;28;20364;-75
2022/11/01 06:37:02;;;;;;;;;;;11.70;99.90;;;;;;5083527;28;19930;-74
2022/11/01 06:39:28;;;;;;;;;;;11.70;99.90;;;;;;5082605;28;20018;-74
2022/11/01 06:41:55;;;;;;;;;;;11.70;99.90;;;;;;5079020;28;19928;-75
2022/11/01 06:44:22;;;;;;;;;;;11.70;99.90;;;;;;5087256;28;19924;-74
2022/11/01 06:46:49;;;;;;;;;;;11.70;99.90;;;;;;5083841;28;19931;-75
2022/11/01 06:49:18;;;;;;;;;;;11.70;99.90;;;;;;5081241;28;20401;-74
2022/11/01 06:51:44;;;;;;;;;;;11.70;99.90;;;;;;5086031;28;19960;-75
2022/11/01 06:54:11;;;;;;;;;;;11.70;99.90;;;;;;5077393;28;19935;-75
2022/11/01 06:56:38;;;;;;;;;;;11.70;99.90;;;;;;5080155;28;19936;-75
2022/11/01 06:59:05;;;;;;;;;;;11.70;99.90;;;;;;5083098;28;19974;-75
2022/11/01 07:01:32;;;;;;;;;;;11.70;99.90;;;;;;5080441;28;19924;-74
2022/11/01 07:03:59;;;;;;;;;;;11.70;99.90;;;;;;5087960;28;19961;-75
2022/11/01 07:06:29;;;;;;;;;;;11.70;99.90;;;;;;5083552;28;19932;-75
2022/11/01 07:08:56;;;;;;;;;;;11.70;99.90;;;;;;5082186;28;19936;-75
2022/11/01 07:11:23;;;;;;;;;;;11.70;99.90;;;;;;5086274;28;19928;-75
2022/11/01 07:13:50;;;;;;;;;;;11.70;99.90;;;;;;5084224;28;19959;-75
2022/11/01 07:16:17;;;;;;;;;;;11.70;99.90;;;;;;5079405;28;19932;-74
2022/11/01 07:18:44;;;;;;;;;;;11.80;99.90;;;;;;5086669;28;19951;-75
2022/11/01 07:21:11;;;;;;;;;;;11.80;99.90;;;;;;5082743;28;20306;-75
2022/11/01 07:23:39;;;;;;;;;;;11.70;99.90;;;;;;5085311;28;19992;-75
2022/11/01 07:26:06;;;;;;;;;;;11.80;99.90;;;;;;5082994;28;19939;-74
2022/11/01 07:28:33;;;;;;;;;;;11.80;99.90;;;;;;5099195;28;20450;-75
2022/11/01 07:31:00;;;;;;;;;;;11.80;99.90;;;;;;5077794;28;19925;-76
2022/11/01 07:33:27;;;;;;;;;;;11.80;99.90;;;;;;5078053;28;19932;-74
2022/11/01 07:35:54;;;;;;;;;;;11.80;99.90;;;;;;5083378;28;20023;-75
2022/11/01 07:38:21;;;;;;;;;;;11.80;99.90;;;;;;5090063;28;19939;-75
2022/11/01 07:40:51;;;;;;;;;;;11.80;99.90;;;;;;5076428;28;19944;-74
2022/11/01 07:43:18;;;;;;;;;;;11.90;99.90;;;;;;5088588;28;20318;-74
2022/11/01 07:45:45;;;;;;;;;;;11.80;99.90;;;;;;5085311;28;20018;-75
2022/11/01 07:48:12;;;;;;;;;;;11.80;99.90;;;;;;5081925;28;19947;-74
2022/11/01 07:50:40;;;;;;;;;;;11.90;99.90;;;;;;5077741;28;20093;-75
2022/11/01 07:53:08;;;;;;;;;;;11.80;99.90;;;;;;5084386;28;19931;-75
2022/11/01 07:55:35;;;;;;;;;;;11.80;99.90;;;;;;5087901;28;19924;-75
2022/11/01 07:58:04;;;;;;;;;;;11.80;99.90;;;;;;5086991;28;19972;-75
2022/11/01 08:00:31;;;;;;;;;;;11.90;99.90;;;;;;5089578;28;20385;-75
2022/11/01 08:03:02;;;;;;;;;;;11.90;99.90;;;;;;5089758;28;20321;-75
2022/11/01 08:05:29;;;;;;;;;;;11.90;99.90;;;;;;5083895;28;19960;-74
2022/11/01 08:07:55;;;;;;;;;;;11.90;99.90;;;;;;5091114;28;20368;-75
2022/11/01 08:10:22;;;;;;;;;;;11.90;99.90;;;;;;5091875;28;19924;-75
2022/11/01 08:12:49;;;;;;;;;;;11.90;99.90;;;;;;5091495;28;19932;-75
2022/11/01 08:15:17;;;;;;;;;;;11.90;99.90;;;;;;5077868;28;19955;-75
2022/11/01 08:17:44;;;;;;;;;;;11.90;99.90;;;;;;5083909;28;20686;-75
2022/11/01 08:20:14;;;;;;;;;;;11.90;99.90;;;;;;5084853;28;19969;-74
2022/11/01 08:22:41;;;;;;;;;;;12.00;99.90;;;;;;5087152;28;20114;-74
2022/11/01 08:25:08;;;;;;;;;;;11.90;99.90;;;;;;5082660;28;20011;-73
2022/11/01 08:27:34;;;;;;;;;;;11.90;99.90;;;;;;5090635;28;20003;-74
2022/11/01 08:30:01;;;;;;;;;;;12.00;99.90;;;;;;5088236;28;19928;-74
2022/11/01 08:32:29;;;;;;;;;;;12.00;99.90;;;;;;5086804;28;19942;-75
2022/11/01 08:34:56;;;;;;;;;;;12.00;99.90;;;;;;5084096;28;19932;-74
2022/11/01 08:37:23;;;;;;;;;;;12.00;99.90;;;;;;5087359;28;19924;-74
2022/11/01 08:39:50;;;;;;;;;;;12.00;99.90;;;;;;5077543;28;19932;-75
2022/11/01 08:42:17;;;;;;;;;;;12.00;99.90;;;;;;5081477;28;19925;-74
2022/11/01 08:44:44;;;;;;;;;;;12.00;99.90;;;;;;5076497;28;20301;-74
2022/11/01 08:47:10;;;;;;;;;;;12.00;99.90;;;;;;5086983;28;19930;-75
2022/11/01 08:49:38;;;;;;;;;;;12.00;99.90;;;;;;5084883;28;20454;-75
2022/11/01 08:52:05;;;;;;;;;;;12.00;99.90;;;;;;5090179;28;19925;-75
2022/11/01 08:54:33;;;;;;;;;;;12.00;99.90;;;;;;5089756;28;19982;-75
2022/11/01 08:57:00;;;;;;;;;;;12.00;99.90;;;;;;5088485;28;19928;-75
2022/11/01 08:59:26;;;;;;;;;;;12.10;99.90;;;;;;5080603;28;20466;-75
2022/11/01 09:01:53;;;;;;;;;;;12.10;99.90;;;;;;5078804;28;19924;-75
2022/11/01 09:04:20;;;;;;;;;;;12.20;99.90;;;;;;5085479;28;19932;-75
2022/11/01 09:06:48;;;;;;;;;;;12.10;99.90;;;;;;5081533;28;19946;-74
2022/11/01 09:09:15;;;;;;;;;;;12.10;99.90;;;;;;5080468;28;19939;-75
2022/11/01 09:11:42;;;;;;;;;;;12.10;99.90;;;;;;5080086;28;19928;-75
2022/11/01 09:14:09;;;;;;;;;;;12.10;99.90;;;;;;5085853;28;19932;-74
2022/11/01 09:16:36;;;;;;;;;;;12.10;99.90;;;;;;5088947;28;19924;-75
2022/11/01 09:19:02;;;;;;;;;;;12.10;99.90;;;;;;5078589;28;20035;-74
2022/11/01 09:21:29;;;;;;;;;;;12.10;99.90;;;;;;5087481;28;19932;-75
2022/11/01 09:23:58;;;;;;;;;;;12.10;99.90;;;;;;5085670;28;20113;-75
2022/11/01 09:26:28;;;;;;;;;;;12.20;99.90;;;;;;5098203;28;20326;-75
2022/11/01 09:28:57;;;;;;;;;;;12.20;99.90;;;;;;5080104;28;20433;-74
2022/11/01 09:31:24;;;;;;;;;;;12.20;99.90;;;;;;5082834;28;19924;-75
2022/11/01 09:33:53;;;;;;;;;;;12.10;99.90;;;;;;5101326;27;19924;-75
2022/11/01 09:36:20;;;;;;;;;;;12.20;99.90;;;;;;5079320;28;20321;-75
2022/11/01 09:38:47;;;;;;;;;;;12.20;99.90;;;;;;5079148;28;19925;-75
2022/11/01 09:41:20;;;;;;;;;;;12.20;99.90;;;;;;5085049;28;19924;-75
2022/11/01 09:43:47;;;;;;;;;;;12.30;99.90;;;;;;5086331;28;19956;-75
2022/11/01 09:46:15;;;;;;;;;;;12.30;99.90;;;;;;5082104;28;20346;-74
2022/11/01 09:48:43;;;;;;;;;;;12.30;99.90;;;;;;5084241;28;19928;-75
2022/11/01 09:51:13;;;;;;;;;;;12.30;99.90;;;;;;5084335;28;19972;-75
2022/11/01 09:53:41;;;;;;;;;;;12.30;99.90;;;;;;5075606;28;20301;-75
2022/11/01 09:56:11;;;;;;;;;;;12.30;99.90;;;;;;5080174;28;20470;-75
2022/11/01 09:58:44;;;;;;;;;;;12.30;99.90;;;;;;5087236;28;20020;-75
2022/11/01 10:01:17;;;;;;;;;;;12.30;99.90;;;;;;5089631;28;19998;-75
2022/11/01 10:03:49;;;;;;;;;;;12.40;99.90;;;;;;5080182;28;19935;-75
2022/11/01 10:06:18;;;;;;;;;;;12.40;99.90;;;;;;5088073;28;19924;-75
2022/11/01 10:08:53;;;;;;;;;;;12.40;99.90;;;;;;5078370;28;20019;-75
2022/11/01 10:11:29;;;;;;;;;;;12.40;99.90;;;;;;5081932;28;19928;-74
2022/11/01 10:14:01;;;;;;;;;;;12.50;99.90;;;;;;5085426;28;20006;-74
2022/11/01 10:16:33;;;;;;;;;;;12.40;99.90;;;;;;5082627;28;19928;-75
2022/11/01 10:19:03;;;;;;;;;;;12.50;99.90;;;;;;5083562;28;20374;-75
2022/11/01 10:21:32;;;;;;;;;;;12.50;99.90;;;;;;5084485;28;20328;-75
2022/11/01 10:24:00;;;;;;;;;;;12.50;99.90;;;;;;5083264;28;19931;-74
2022/11/01 10:26:29;;;;;;;;;;;12.50;99.90;;;;;;5084594;28;20374;-74
2022/11/01 10:29:01;;;;;;;;;;;12.50;99.90;;;;;;5073033;28;19924;-75
2022/11/01 10:31:29;;;;;;;;;;;12.50;99.90;;;;;;5081733;28;19978;-75
2022/11/01 10:33:59;;;;;;;;;;;12.50;99.90;;;;;;5083699;28;19958;-75
2022/11/01 10:36:27;;;;;;;;;;;12.50;99.90;;;;;;5085049;28;19971;-75
2022/11/01 10:38:57;;;;;;;;;;;12.60;99.90;;;;;;5079184;28;19927;-75
2022/11/01 10:41:27;;;;;;;;;;;12.60;99.90;;;;;;5084540;28;19924;-74
2022/11/01 10:43:55;;;;;;;;;;;12.60;99.90;;;;;;5084595;28;20524;-75
2022/11/01 10:46:25;;;;;;;;;;;12.60;99.90;;;;;;5080850;28;19952;-75
2022/11/01 10:48:54;;;;;;;;;;;12.60;99.90;;;;;;5086537;28;20387;-75
2022/11/01 10:51:23;;;;;;;;;;;12.70;99.90;;;;;;5086325;28;19931;-75
2022/11/01 10:53:52;;;;;;;;;;;12.70;99.90;;;;;;5084046;28;19937;-75
2022/11/01 10:56:22;;;;;;;;;;;12.70;99.90;;;;;;5081724;28;20374;-74
2022/11/01 10:58:51;;;;;;;;;;;12.70;99.90;;;;;;5085754;28;19947;-74
2022/11/01 11:01:19;;;;;;;;;;;12.70;99.90;;;;;;5091495;28;19928;-76
2022/11/01 11:03:48;;;;;;;;;;;12.70;99.90;;;;;;5081030;28;20402;-75
2022/11/01 11:06:16;;;;;;;;;;;12.70;99.90;;;;;;5088324;28;19982;-75
2022/11/01 11:08:44;;;;;;;;;;;12.70;99.90;;;;;;5082127;28;19928;-75
2022/11/01 11:11:13;;;;;;;;;;;12.80;99.90;;;;;;5089955;28;19963;-75
2022/11/01 11:13:40;;;;;;;;;;;12.80;99.90;;;;;;5083266;28;19924;-75
2022/11/01 11:16:14;;;;;;;;;;;12.80;99.90;;;;;;5091616;28;19924;-75
2022/11/01 11:18:59;;;;;;;;;;;12.80;99.90;;;;;;5081194;28;19978;-74
2022/11/01 11:21:32;;;;;;;;;;;12.90;99.90;;;;;;5079328;28;20415;-74
2022/11/01 11:23:59;;;;;;;;;;;12.90;99.90;;;;;;5084146;28;19924;-74
2022/11/01 11:26:27;;;;;;;;;;;12.90;99.90;;;;;;5083632;28;20372;-75
2022/11/01 11:28:55;;;;;;;;;;;12.90;99.90;;;;;;5081654;28;20404;-75
2022/11/01 11:31:24;;;;;;;;;;;12.90;99.90;;;;;;5084755;28;19938;-75
2022/11/01 11:33:53;;;;;;;;;;;12.90;99.90;;;;;;5098555;27;19977;-75
2022/11/01 11:36:26;;;;;;;;;;;12.90;99.90;;;;;;5089482;28;19954;-75
2022/11/01 11:38:55;;;;;;;;;;;13.00;99.90;;;;;;5087477;28;19932;-75
2022/11/01 11:41:26;;;;;;;;;;;13.00;99.90;;;;;;5076230;27;20023;-75
2022/11/01 11:43:53;;;;;;;;;;;13.00;99.90;;;;;;5087797;28;20083;-75
2022/11/01 11:46:22;;;;;;;;;;;13.00;99.90;;;;;;5083571;28;20022;-74
2022/11/01 11:48:51;;;;;;;;;;;13.00;99.90;;;;;;5081618;28;19924;-75
2022/11/01 11:51:18;;;;;;;;;;;13.10;99.90;;;;;;5091741;28;19943;-75
2022/11/01 11:53:44;;;;;;;;;;;13.10;99.90;;;;;;5078727;28;19924;-75
2022/11/01 11:56:13;;;;;;;;;;;13.10;99.90;;;;;;5086914;28;19931;-75
2022/11/01 11:58:41;;;;;;;;;;;13.10;99.90;;;;;;5080237;28;19965;-75
2022/11/01 12:01:10;;;;;;;;;;;13.10;99.90;;;;;;5089806;28;20031;-74
2022/11/01 12:03:43;;;;;;;;;;;13.20;99.90;;;;;;5091581;28;20007;-74
2022/11/01 12:06:10;;;;;;;;;;;13.20;99.90;;;;;;5088978;28;19923;-75
2022/11/01 12:08:44;;;;;;;;;;;13.20;99.90;;;;;;5087125;28;20309;-74
2022/11/01 12:11:11;;;;;;;;;;;13.20;99.90;;;;;;5107392;27;19930;-74
2022/11/01 12:13:41;;;;;;;;;;;13.20;99.90;;;;;;5081448;28;19959;-75
2022/11/01 12:16:09;;;;;;;;;;;13.20;99.90;;;;;;5086285;28;20398;-75
2022/11/01 12:18:45;;;;;;;;;;;13.20;99.90;;;;;;5082247;28;20348;-75
2022/11/01 12:21:14;;;;;;;;;;;13.30;99.90;;;;;;5095325;28;20044;-75
2022/11/01 12:23:42;;;;;;;;;;;13.30;99.90;;;;;;5085117;28;19952;-75
2022/11/01 12:26:11;;;;;;;;;;;13.30;99.90;;;;;;5080454;28;19986;-75
2022/11/01 12:28:43;;;;;;;;;;;13.30;99.90;;;;;;5083759;28;19990;-75
2022/11/01 12:31:12;;;;;;;;;;;13.30;99.90;;;;;;5082188;28;20381;-75
2022/11/01 12:33:41;;;;;;;;;;;13.30;99.90;;;;;;5083875;28;19966;-74
2022/11/01 12:36:09;;;;;;;;;;;13.30;99.90;;;;;;5090767;28;19955;-75
2022/11/01 12:38:43;;;;;;;;;;;13.40;99.90;;;;;;5083814;28;20036;-74
2022/11/01 12:41:23;;;;;;;;;;;13.40;99.90;;;;;;5080680;28;19981;-75
2022/11/01 12:43:56;;;;;;;;;;;13.40;99.90;;;;;;5082952;28;20355;-74
2022/11/01 12:46:25;;;;;;;;;;;13.50;99.90;;;;;;5088428;28;19924;-75
2022/11/01 12:48:54;;;;;;;;;;;13.40;99.90;;;;;;5080591;28;19924;-74
2022/11/01 12:51:25;;;;;;;;;;;13.50;99.90;;;;;;5086068;28;20358;-75
2022/11/01 12:53:54;;;;;;;;;;;13.50;99.90;;;;;;5085105;28;20400;-74
2022/11/01 12:56:21;;;;;;;;;;;13.50;99.90;;;;;;5088224;28;20298;-75
2022/11/01 12:58:48;;;;;;;;;;;13.50;99.90;;;;;;5085362;28;19963;-75
2022/11/01 13:01:24;;;;;;;;;;;13.50;99.90;;;;;;5082942;28;19978;-75
2022/11/01 13:03:57;;;;;;;;;;;13.60;99.90;;;;;;5088915;28;19924;-75
2022/11/01 13:06:35;;;;;;;;;;;13.50;99.90;;;;;;5085981;28;20416;-75
2022/11/01 13:09:05;;;;;;;;;;;13.60;99.90;;;;;;5088918;28;19924;-75
2022/11/01 13:11:44;;;;;;;;;;;13.60;99.90;;;;;;5089731;28;19977;-75
2022/11/01 13:14:18;;;;;;;;;;;13.60;99.90;;;;;;5084618;28;20803;-75
2022/11/01 13:16:49;;;;;;;;;;;13.60;99.90;;;;;;5085003;28;20274;-75
2022/11/01 13:19:18;;;;;;;;;;;13.60;99.90;;;;;;5089107;28;20495;-74
2022/11/01 13:21:49;;;;;;;;;;;13.60;99.90;;;;;;5082281;28;19927;-75
2022/11/01 13:24:19;;;;;;;;;;;13.70;99.90;;;;;;5081901;28;19924;-75
2022/11/01 13:26:49;;;;;;;;;;;13.70;99.90;;;;;;5088308;28;19924;-75
2022/11/01 13:29:18;;;;;;;;;;;13.70;99.90;;;;;;5089937;28;19924;-75
2022/11/01 13:31:54;;;;;;;;;;;13.70;99.90;;;;;;5080930;28;20121;-75
2022/11/01 13:34:25;;;;;;;;;;;13.70;99.90;;;;;;5093326;28;19955;-75
2022/11/01 13:36:55;;;;;;;;;;;13.70;99.90;;;;;;5081457;28;20007;-75
2022/11/01 13:39:25;;;;;;;;;;;13.80;99.90;;;;;;5081374;28;21261;-75
2022/11/01 13:41:55;;;;;;;;;;;13.70;99.90;;;;;;5081470;28;20006;-75
2022/11/01 13:44:24;;;;;;;;;;;13.70;99.90;;;;;;5084003;28;19924;-75
2022/11/01 13:47:07;;;;;;;;;;;13.80;99.90;;;;;;5091085;28;19943;-75
2022/11/01 13:49:48;;;;;;;;;;;13.80;99.90;;;;;;5077313;28;19989;-75
2022/11/01 13:52:17;;;;;;;;;;;13.80;99.90;;;;;;5083409;28;20377;-75
2022/11/01 13:54:50;;;;;;;;;;;13.80;99.90;;;;;;5077764;28;20537;-75
2022/11/01 13:57:18;;;;;;;;;;;13.80;99.90;;;;;;5085751;28;19930;-75
2022/11/01 13:59:54;;;;;;;;;;;13.90;99.90;;;;;;5088749;28;19924;-74
2022/11/01 14:02:45;;;;;;;;;;;13.90;99.90;;;;;;5073637;28;19931;-75
2022/11/01 14:05:12;;;;;;;;;;;13.90;99.90;;;;;;5088699;28;19929;-75
2022/11/01 14:07:40;;;;;;;;;;;;;;;;;;5085603;28;19924;-74
2022/11/01 14:10:11;;;;;;;;;;;13.90;99.90;;;;;;5081516;28;20408;-75
2022/11/01 14:12:39;;;;;;;;;;;13.90;99.90;;;;;;5085374;28;20294;-74
2022/11/01 14:15:10;;;;;;;;;;;14.00;99.90;;;;;;5080993;28;19925;-74
2022/11/01 14:17:49;;;;;;;;;;;14.00;99.90;;;;;;5075078;28;19932;-75
2022/11/01 14:20:35;;;;;;;;;;;13.90;99.90;;;;;;5079328;28;19932;-75
2022/11/01 14:23:30;;;;;;;;;;;14.00;99.90;;;;;;5078410;28;19928;-75
2022/11/01 14:26:11;;;;;;;;;;;14.00;99.90;;;;;;5080373;28;20114;-74
2022/11/01 14:28:42;;;;;;;;;;;14.00;99.90;;;;;;5080017;28;20405;-75
2022/11/01 14:31:09;;;;;;;;;;;14.10;99.90;;;;;;5084104;28;19924;-75
2022/11/01 14:33:38;;;;;;;;;;;14.10;99.90;;;;;;5086907;28;19939;-75